createdAt,value
2019-02-22T00:03:31.353Z,42.67
2019-02-22T00:08:35.297Z,40.87
2019-02-22T00:13:39.670Z,41.37
2019-02-22T00:18:43.556Z,37.90
2019-02-22T00:23:47.629Z,35.63
2019-02-22T00:28:51.644Z,36.20
2019-02-22T00:33:55.712Z,34.77
2019-02-22T00:38:59.834Z,37.60
2019-02-22T00:44:04.000Z,35.73
2019-02-22T00:49:08.324Z,37.87
2019-02-22T00:54:12.349Z,37.20
2019-02-22T00:59:16.224Z,34.97
2019-02-22T01:04:20.132Z,36.03
2019-02-22T01:09:24.348Z,37.33
2019-02-22T01:14:28.115Z,34.83
2019-02-22T01:19:32.411Z,37.20
2019-02-22T01:24:37.118Z,36.63
2019-02-22T01:29:41.177Z,34.03
2019-02-22T01:34:45.046Z,35.63
2019-02-22T01:39:48.986Z,35.30
2019-02-22T01:44:54.699Z,34.60
2019-02-22T01:49:58.592Z,34.17
2019-02-22T01:55:02.922Z,31.97
2019-02-22T02:00:06.957Z,29.73
2019-02-22T02:05:10.855Z,28.90
2019-02-22T02:10:14.842Z,28.93
2019-02-22T02:15:18.608Z,28.13
2019-02-22T02:20:22.871Z,24.83
2019-02-22T02:25:26.972Z,24.73
2019-02-22T02:30:31.027Z,23.80
2019-02-22T02:35:34.997Z,20.10
2019-02-22T02:40:38.733Z,21.90
2019-02-22T02:45:42.450Z,21.10
2019-02-22T02:50:46.182Z,20.43
2019-02-22T02:55:49.929Z,19.43
2019-02-22T03:00:53.652Z,18.47
2019-02-22T03:06:15.307Z,19.10
2019-02-22T03:11:21.011Z,19.37
2019-02-22T03:16:24.694Z,19.63
2019-02-22T03:21:28.379Z,22.17
2019-02-22T03:26:32.057Z,20.33
2019-02-22T03:31:35.794Z,22.87
2019-02-22T03:36:39.549Z,21.57
2019-02-22T03:41:43.496Z,20.63
2019-02-22T03:46:47.454Z,22.73
2019-02-22T03:51:51.121Z,21.57
2019-02-22T03:56:54.872Z,16.67
2019-02-22T04:01:58.558Z,17.67
2019-02-22T04:07:02.542Z,15.73
2019-02-22T04:12:06.377Z,12.70
2019-02-22T04:17:11.515Z,10.40
2019-02-22T04:22:15.332Z,10.70
2019-02-22T04:27:19.024Z,9.87
2019-02-22T04:32:22.987Z,9.57
2019-02-22T04:37:26.823Z,10.33
2019-02-22T04:42:31.168Z,10.73
2019-02-22T04:47:35.015Z,10.73
2019-02-22T04:52:38.679Z,9.43
2019-02-22T04:57:42.358Z,9.27
2019-02-22T05:02:46.127Z,9.07
2019-02-22T05:07:49.944Z,8.40
2019-02-22T05:12:53.621Z,7.40
2019-02-22T05:17:57.320Z,8.10
2019-02-22T05:23:04.409Z,7.97
2019-02-22T05:28:06.571Z,7.70
2019-02-22T05:33:11.875Z,7.67
2019-02-22T05:38:15.686Z,8.40
2019-02-22T05:43:19.426Z,6.90
2019-02-22T05:48:25.371Z,7.00
2019-02-22T05:53:28.537Z,6.20
2019-02-22T05:58:32.725Z,6.17
2019-02-22T06:03:36.394Z,6.63
2019-02-22T06:08:40.078Z,6.90
2019-02-22T06:13:43.835Z,6.53
2019-02-22T06:18:47.509Z,6.70
2019-02-22T06:23:51.192Z,6.97
2019-02-22T06:28:54.949Z,6.13
2019-02-22T06:33:59.037Z,5.90
2019-02-22T06:39:03.278Z,5.40
2019-02-22T06:44:07.124Z,5.63
2019-02-22T06:49:10.823Z,5.20
2019-02-22T06:54:14.560Z,4.67
2019-02-22T06:59:18.892Z,4.20
2019-02-22T07:04:22.599Z,3.23
2019-02-22T07:09:26.321Z,4.40
2019-02-22T07:14:30.301Z,4.90
2019-02-22T07:19:34.005Z,4.77
2019-02-22T07:24:37.689Z,4.93
2019-02-22T07:29:41.440Z,5.30
2019-02-22T07:34:45.475Z,7.07
2019-02-22T07:39:49.457Z,7.30
2019-02-22T07:44:53.384Z,6.13
2019-02-22T07:49:57.079Z,5.47
2019-02-22T07:55:00.755Z,6.03
2019-02-22T08:00:06.700Z,5.10
2019-02-22T08:05:10.981Z,4.23
2019-02-22T08:10:14.841Z,3.90
2019-02-22T08:15:18.780Z,1.07
2019-02-22T08:20:22.580Z,1.00
2019-02-22T08:25:26.224Z,1.00
2019-02-22T08:30:29.901Z,0.90
2019-02-22T08:35:33.610Z,0.93
2019-02-22T08:40:37.631Z,1.30
2019-02-22T08:45:41.321Z,1.43
2019-02-22T08:50:45.474Z,2.23
2019-02-22T08:55:49.714Z,2.03
2019-02-22T09:00:53.416Z,1.90
2019-02-22T09:05:58.181Z,2.40
2019-02-22T09:11:02.104Z,2.23
2019-02-22T09:16:05.802Z,2.67
2019-02-22T09:21:09.492Z,2.53
2019-02-22T09:26:13.202Z,3.40
2019-02-22T09:31:16.893Z,4.43
2019-02-22T09:36:20.676Z,4.20
2019-02-22T09:41:24.753Z,4.30
2019-02-22T09:46:28.456Z,4.50
2019-02-22T09:51:32.420Z,5.37
2019-02-22T09:56:36.112Z,5.30
2019-02-22T10:01:39.880Z,6.30
2019-02-22T10:06:43.898Z,7.00
2019-02-22T10:11:48.249Z,9.03
2019-02-22T10:16:52.320Z,8.53
2019-02-22T10:21:57.626Z,9.20
2019-02-22T10:27:01.825Z,10.03
2019-02-22T10:32:05.613Z,9.67
2019-02-22T10:37:09.393Z,11.30
2019-02-22T10:42:13.940Z,10.17
2019-02-22T10:47:17.775Z,10.63
2019-02-22T10:52:21.571Z,12.07
2019-02-22T10:57:25.521Z,10.90
2019-02-22T11:02:31.244Z,11.03
2019-02-22T11:07:37.133Z,11.73
2019-02-22T11:12:40.136Z,12.23
2019-02-22T11:17:44.153Z,13.83
2019-02-22T11:22:48.037Z,13.67
2019-02-22T11:27:51.798Z,14.90
2019-02-22T11:32:55.567Z,16.07
2019-02-22T11:37:59.357Z,15.60
2019-02-22T11:43:03.166Z,17.03
2019-02-22T11:48:09.370Z,17.77
2019-02-22T11:53:13.128Z,14.80
2019-02-22T11:58:17.118Z,14.67
2019-02-22T12:03:24.579Z,13.60
2019-02-22T12:08:26.497Z,13.87
2019-02-22T12:13:32.009Z,11.30
2019-02-22T12:18:36.669Z,10.87
2019-02-22T12:23:40.574Z,11.53
2019-02-22T12:28:44.818Z,11.57
2019-02-22T12:33:48.789Z,10.93
2019-02-22T12:38:52.573Z,10.77
2019-02-22T12:43:56.591Z,11.80
2019-02-22T12:49:00.302Z,12.20
2019-02-22T12:54:04.614Z,12.10
2019-02-22T12:59:08.869Z,10.57
2019-02-22T13:04:12.625Z,9.13
2019-02-22T13:09:16.690Z,8.90
2019-02-22T13:14:20.640Z,8.73
2019-02-22T13:19:24.343Z,8.87
2019-02-22T13:24:28.021Z,6.80
2019-02-22T13:29:31.768Z,7.07
2019-02-22T13:34:35.536Z,7.03
2019-02-22T13:39:39.297Z,5.67
2019-02-22T13:44:43.321Z,5.73
2019-02-22T13:49:47.106Z,5.40
2019-02-22T13:54:50.791Z,5.27
2019-02-22T13:59:54.494Z,5.23
2019-02-22T14:04:58.257Z,5.60
2019-02-22T14:10:02.000Z,5.10
2019-02-22T14:15:06.506Z,4.57
2019-02-22T14:20:10.670Z,3.87
2019-02-22T14:25:14.638Z,3.30
2019-02-22T14:30:19.213Z,3.73
2019-02-22T14:35:24.581Z,3.83
2019-02-22T14:40:28.528Z,3.83
2019-02-22T14:45:32.661Z,5.03
2019-02-22T14:50:36.332Z,5.90
2019-02-22T14:55:45.099Z,5.50
2019-02-22T15:00:48.859Z,5.83
2019-02-22T15:05:52.772Z,5.80
2019-02-22T15:10:56.471Z,5.40
2019-02-22T15:16:25.666Z,4.77
2019-02-22T15:21:29.525Z,4.50
2019-02-22T15:26:33.628Z,5.27
2019-02-22T15:31:37.343Z,4.47
2019-02-22T15:36:45.436Z,5.07
2019-02-22T15:42:00.127Z,5.53
2019-02-22T15:47:31.847Z,6.17
2019-02-22T15:53:15.918Z,5.50
2019-02-22T15:58:34.146Z,6.10
2019-02-22T16:03:55.249Z,5.97
2019-02-22T16:09:05.383Z,6.27
2019-02-22T16:14:09.440Z,6.23
2019-02-22T16:19:13.416Z,6.40
2019-02-22T16:24:17.517Z,6.83
2019-02-22T16:29:21.177Z,6.80
2019-02-22T16:34:25.085Z,6.97
2019-02-22T16:39:28.897Z,7.30
2019-02-22T16:44:32.897Z,7.70
2019-02-22T16:49:36.967Z,8.20
2019-02-22T16:54:41.177Z,7.53
2019-02-22T16:59:44.898Z,7.60
2019-02-22T17:04:48.660Z,8.30
2019-02-22T17:09:52.425Z,7.30
2019-02-22T17:14:56.135Z,6.60
2019-02-22T17:19:59.901Z,7.80
2019-02-22T17:25:05.407Z,8.87
2019-02-22T17:30:11.315Z,8.97
2019-02-22T17:35:16.605Z,10.53
2019-02-22T17:40:21.603Z,10.37
2019-02-22T17:46:00.109Z,8.63
2019-02-22T17:51:04.451Z,8.93
2019-02-22T17:56:08.216Z,8.80
2019-02-22T18:01:12.512Z,9.30
2019-02-22T18:06:16.292Z,8.93
2019-02-22T18:11:20.160Z,10.40
2019-02-22T18:16:24.213Z,13.57
2019-02-22T18:21:27.976Z,11.43
2019-02-22T18:26:31.813Z,9.87
2019-02-22T18:31:35.872Z,9.83
2019-02-22T18:36:40.608Z,10.47
2019-02-22T18:41:44.289Z,10.10
2019-02-22T18:46:48.090Z,9.70
2019-02-22T18:51:51.760Z,9.73
2019-02-22T18:56:55.450Z,10.13
2019-02-22T19:01:59.154Z,11.20
2019-02-22T19:07:02.901Z,10.93
2019-02-22T19:12:06.659Z,9.70
2019-02-22T19:17:10.349Z,9.00
2019-02-22T19:22:14.069Z,8.17
2019-02-22T19:27:17.847Z,8.03
2019-02-22T19:32:21.568Z,7.77
2019-02-22T19:37:25.607Z,7.70
2019-02-22T19:42:29.492Z,7.00
2019-02-22T19:47:41.326Z,7.57
2019-02-22T19:52:38.535Z,6.80
2019-02-22T19:57:42.288Z,6.83
2019-02-22T20:02:46.032Z,7.13
2019-02-22T20:07:49.768Z,7.93
2019-02-22T20:12:53.451Z,7.17
2019-02-22T20:17:57.131Z,8.17
2019-02-22T20:23:00.865Z,7.63
2019-02-22T20:28:04.525Z,8.13
2019-02-22T20:33:08.448Z,8.23
2019-02-22T20:38:12.571Z,9.27
2019-02-22T20:43:16.837Z,9.77
2019-02-22T20:48:21.583Z,10.47
2019-02-22T20:53:26.363Z,11.40
2019-02-22T20:58:30.513Z,11.30
2019-02-22T21:03:36.292Z,11.77
2019-02-22T21:08:41.800Z,9.97
2019-02-22T21:13:45.689Z,10.50
2019-02-22T21:18:49.441Z,9.00
2019-02-22T21:23:53.131Z,10.17
2019-02-22T21:28:56.841Z,8.40
2019-02-22T21:34:00.769Z,11.17
2019-02-22T21:39:04.839Z,9.80
2019-02-22T21:44:08.588Z,8.67
2019-02-22T21:49:12.658Z,8.23
2019-02-22T21:54:16.425Z,7.07
2019-02-22T21:59:20.567Z,8.40
2019-02-22T22:04:24.622Z,7.17
2019-02-22T22:09:28.351Z,7.73
2019-02-22T22:14:32.057Z,6.70
2019-02-22T22:19:35.763Z,6.30
2019-02-22T22:24:39.809Z,6.10
2019-02-22T22:29:43.537Z,5.53
2019-02-22T22:34:47.391Z,6.17
2019-02-22T22:39:51.380Z,5.17
2019-02-22T22:44:55.120Z,6.13
2019-02-22T22:49:59.441Z,5.87
2019-02-22T22:55:03.144Z,5.90
2019-02-22T23:00:40.368Z,5.77
2019-02-22T23:05:44.098Z,5.73
2019-02-22T23:10:48.593Z,5.47
2019-02-22T23:15:52.384Z,5.50
2019-02-22T23:20:56.411Z,5.87
2019-02-22T23:26:00.110Z,4.80
2019-02-22T23:31:03.837Z,5.80
2019-02-22T23:36:07.758Z,5.83
2019-02-22T23:41:11.448Z,6.43
2019-02-22T23:46:15.460Z,5.47
2019-02-22T23:51:19.153Z,5.97
2019-02-22T23:56:22.869Z,5.50
